| time (UTC) | temp F | wind direction | speed MPH | gust MPH | rain 1hr in | rain 24hr in | rain mn in | humidity % | barometer mb |
| 20260509020018 | 78 | 96 | 2.0 | 5.0 | 0.00 | 0.00 | 0.00 | 50 | 1008.9 |
| 20260509014517 | 79 | 116 | 1.0 | 5.0 | 0.00 | 0.00 | 0.00 | 49 | 1008.8 |
| 20260509013038 | 80 | 116 | 3.0 | 8.0 | 0.00 | 0.00 | 0.00 | 49 | 1008.8 |
| 20260509011516 | 80 | 175 | 2.0 | 7.0 | 0.00 | 0.00 | 0.00 | 47 | 1008.8 |
| 20260509010023 | 81 | 142 | 3.0 | 7.0 | 0.00 | 0.00 | 0.00 | 46 | 1008.9 |
| 20260509004533 | 81 | 160 | 4.0 | 9.0 | 0.00 | 0.00 | 0.00 | 48 | 1008.8 |
| 20260509003014 | 82 | 192 | 5.0 | 12.0 | 0.00 | 0.00 | 0.00 | 48 | 1008.8 |
| 20260509001514 | 83 | 161 | 4.0 | 9.0 | 0.00 | 0.00 | 0.00 | 47 | 1008.8 |
| 20260509000013 | 83 | 137 | 4.0 | 9.0 | 0.00 | 0.00 | 0.00 | 47 | 1008.7 |
| 20260508234512 | 83 | 129 | 4.0 | 9.0 | 0.00 | 0.00 | 0.00 | 49 | 1008.8 |
| 20260508233011 | 84 | 165 | 3.0 | 10.0 | 0.00 | 0.00 | 0.00 | 48 | 1008.9 |
| 20260508231510 | 83 | 192 | 4.0 | 11.0 | 0.00 | 0.00 | 0.00 | 50 | 1009.0 |
| 20260508230028 | 83 | 178 | 4.0 | 11.0 | 0.00 | 0.00 | 0.00 | 52 | 1009.1 |
| 20260508224508 | 83 | 151 | 5.0 | 12.0 | 0.00 | 0.00 | 0.00 | 51 | 1009.3 |
| 20260508223016 | 84 | 204 | 3.0 | 13.0 | 0.00 | 0.00 | 0.00 | 52 | 1009.4 |
| 20260508221507 | 84 | 188 | 5.0 | 12.0 | 0.00 | 0.00 | 0.00 | 51 | 1009.2 |
| 20260508220013 | 84 | 200 | 5.0 | 10.0 | 0.00 | 0.00 | 0.00 | 53 | 1009.2 |
| 20260508214505 | 85 | 149 | 6.0 | 13.0 | 0.00 | 0.00 | 0.00 | 52 | 1009.3 |
| 20260508213004 | 84 | 168 | 6.0 | 13.0 | 0.00 | 0.00 | 0.00 | 53 | 1009.4 |
| 20260508211502 | 84 | 166 | 5.0 | 10.0 | 0.00 | 0.00 | 0.00 | 54 | 1009.6 |
| 20260508210000 | 84 | 168 | 5.0 | 11.0 | 0.00 | 0.00 | 0.00 | 55 | 1009.7 |
| 20260508204559 | 84 | 146 | 4.0 | 11.0 | 0.00 | 0.00 | 0.00 | 56 | 1009.9 |
| 20260508203058 | 83 | 119 | 4.0 | 13.0 | 0.00 | 0.00 | 0.00 | 57 | 1010.0 |
| 20260508201557 | 83 | 188 | 5.0 | 11.0 | 0.00 | 0.00 | 0.00 | 58 | 1010.1 |
| 20260508200058 | 83 | 177 | 5.0 | 12.0 | 0.00 | 0.00 | 0.00 | 58 | 1010.2 |
| 20260508194553 | 84 | 173 | 7.0 | 14.0 | 0.00 | 0.00 | 0.00 | 56 | 1010.3 |
| 20260508193059 | 84 | 113 | 6.0 | 12.0 | 0.00 | 0.00 | 0.00 | 56 | 1010.6 |
| 20260508191553 | 84 | 178 | 4.0 | 12.0 | 0.00 | 0.00 | 0.00 | 56 | 1010.8 |
| 20260508184611 | 83 | 161 | 4.0 | 10.0 | 0.00 | 0.00 | 0.00 | 59 | 1011.2 |
| 20260508183051 | 83 | 171 | 5.0 | 15.0 | 0.00 | 0.00 | 0.00 | 59 | 1011.2 |
| 20260508181603 | 82 | 138 | 4.0 | 13.0 | 0.00 | 0.00 | 0.00 | 59 | 1011.3 |
| 20260508180050 | 84 | 198 | 6.0 | 11.0 | 0.00 | 0.00 | 0.00 | 55 | 1011.4 |
| 20260508174547 | 84 | 163 | 4.0 | 10.0 | 0.00 | 0.00 | 0.00 | 50 | 1011.3 |
| 20260508173049 | 86 | 134 | 6.0 | 12.0 | 0.00 | 0.00 | 0.00 | 46 | 1011.4 |
| 20260508171546 | 90 | 161 | 1.0 | 8.0 | 0.00 | 0.00 | 0.00 | 31 | 1011.7 |
| 20260508170043 | 88 | 28 | 1.0 | 7.0 | 0.00 | 0.00 | 0.00 | 27 | 1011.6 |
| 20260508164554 | 88 | 360 | 2.0 | 8.0 | 0.00 | 0.00 | 0.00 | 28 | 1011.5 |
| 20260508163036 | 86 | 329 | 1.0 | 6.0 | 0.00 | 0.00 | 0.00 | 30 | 1011.6 |
| 20260508161535 | 85 | 355 | 1.0 | 6.0 | 0.00 | 0.00 | 0.00 | 35 | 1011.7 |
| 20260508160031 | 83 | 18 | 2.0 | 8.0 | 0.00 | 0.00 | 0.00 | 38 | 1011.7 |
| 20260508154524 | 81 | 24 | 3.0 | 8.0 | 0.00 | 0.00 | 0.00 | 42 | 1011.9 |
| 20260508153020 | 79 | 11 | 2.0 | 6.0 | 0.00 | 0.00 | 0.00 | 53 | 1011.9 |
| 20260508151516 | 76 | 5 | 1.0 | 7.0 | 0.00 | 0.00 | 0.00 | 61 | 1011.9 |
| 20260508150018 | 74 | 310 | 1.0 | 4.0 | 0.00 | 0.00 | 0.00 | 67 | 1011.9 |
| 20260508144510 | 72 | 323 | 1.0 | 6.0 | 0.00 | 0.00 | 0.00 | 70 | 1011.8 |
| 20260508143003 | 70 | 32 | 1.0 | 4.0 | 0.00 | 0.00 | 0.00 | 72 | 1011.6 |
| 20260508141608 | 68 | 34 | 0.0 | 5.0 | 0.00 | 0.00 | 0.00 | 77 | 1011.5 |
| 20260508140058 | 66 | 333 | 1.0 | 6.0 | 0.00 | 0.00 | 0.00 | 80 | 1011.5 |
| 20260508134600 | 65 | 317 | 1.0 | 5.0 | 0.00 | 0.00 | 0.00 | 83 | 1011.3 |
| 20260508133118 | 65 | 331 | 1.0 | 4.0 | 0.00 | 0.00 | 0.00 | 83 | 1011.3 |
| 20260508131555 | 64 | 350 | 1.0 | 4.0 | 0.00 | 0.00 | 0.00 | 84 | 1011.1 |
| 20260508130054 | 64 | 5 | 0.0 | 5.0 | 0.00 | 0.00 | 0.00 | 85 | 1011.1 |
| 20260508124554 | 64 | 321 | 1.0 | 4.0 | 0.00 | 0.00 | 0.00 | 85 | 1010.9 |
| 20260508123101 | 64 | 295 | 0.0 | 4.0 | 0.00 | 0.00 | 0.00 | 86 | 1011.0 |
| 20260508121552 | 64 | 342 | 0.0 | 4.0 | 0.00 | 0.00 | 0.00 | 86 | 1010.9 |
| 20260508120053 | 64 | 340 | 0.0 | 3.0 | 0.00 | 0.00 | 0.00 | 86 | 1010.8 |
| 20260508114548 | 64 | 340 | 0.0 | 3.0 | 0.00 | 0.00 | 0.00 | 87 | 1010.7 |
| 20260508113102 | 65 | 340 | 0.0 | 4.0 | 0.00 | 0.00 | 0.00 | 87 | 1010.6 |
| 20260508111547 | 65 | 5 | 0.0 | 2.0 | 0.00 | 0.00 | 0.00 | 86 | 1010.6 |
| 20260508110053 | 65 | 5 | 1.0 | 2.0 | 0.00 | 0.00 | 0.00 | 87 | 1010.6 |
| 20260508104543 | 65 | 5 | 0.0 | 2.0 | 0.00 | 0.00 | 0.00 | 86 | 1010.5 |
| 20260508103049 | 66 | 5 | 0.0 | 1.0 | 0.00 | 0.00 | 0.00 | 86 | 1010.5 |
| 20260508101541 | 66 | 5 | 0.0 | 1.0 | 0.00 | 0.00 | 0.00 | 86 | 1010.6 |
| 20260508100039 | 66 | 5 | 0.0 | 1.0 | 0.00 | 0.00 | 0.00 | 86 | 1010.5 |
| 20260508094538 | 67 | 5 | 0.0 | 2.0 | 0.00 | 0.00 | 0.00 | 86 | 1010.5 |
| 20260508093038 | 67 | 5 | 0.0 | 3.0 | 0.00 | 0.00 | 0.00 | 86 | 1010.5 |
| 20260508091542 | 66 | 5 | 0.0 | 3.0 | 0.00 | 0.00 | 0.00 | 86 | 1010.5 |
| 20260508090045 | 67 | 13 | 0.0 | 2.0 | 0.00 | 0.00 | 0.00 | 86 | 1010.6 |
| 20260508084533 | 67 | 13 | 0.0 | 3.0 | 0.00 | 0.00 | 0.00 | 86 | 1010.8 |
| 20260508083038 | 67 | 13 | 1.0 | 4.0 | 0.00 | 0.00 | 0.00 | 86 | 1011.0 |
| 20260508081530 | 67 | 348 | 0.0 | 3.0 | 0.00 | 0.00 | 0.00 | 86 | 1011.1 |
| 20260508080029 | 67 | 341 | 0.0 | 4.0 | 0.00 | 0.00 | 0.00 | 86 | 1011.2 |
| 20260508074536 | 67 | 106 | 0.0 | 1.0 | 0.00 | 0.00 | 0.00 | 85 | 1011.4 |
| 20260508073033 | 67 | 106 | 0.0 | 2.0 | 0.00 | 0.00 | 0.00 | 85 | 1011.5 |
| 20260508071523 | 68 | 106 | 0.0 | 1.0 | 0.00 | 0.00 | 0.00 | 84 | 1011.7 |
| 20260508070021 | 68 | 106 | 0.0 | 1.0 | 0.00 | 0.00 | 0.00 | 84 | 1011.8 |
| 20260508064519 | 68 | 106 | 0.0 | 2.0 | 0.00 | 0.00 | 0.00 | 84 | 1011.9 |
| 20260508063019 | 68 | 111 | 0.0 | 1.0 | 0.00 | 0.00 | 0.00 | 84 | 1012.0 |
| 20260508061519 | 68 | 111 | 0.0 | 0.0 | 0.00 | 0.00 | 0.00 | 83 | 1012.1 |
| 20260508060016 | 69 | 111 | 0.0 | 1.0 | 0.00 | 0.00 | 0.00 | 83 | 1012.1 |
| 20260508054517 | 69 | 111 | 0.0 | 0.0 | 0.00 | 0.00 | 0.00 | 83 | 1012.1 |
| 20260508053031 | 69 | 111 | 0.0 | 1.0 | 0.00 | 0.00 | 0.00 | 82 | 1012.0 |
| 20260508051514 | 69 | 111 | 0.0 | 2.0 | 0.00 | 0.00 | 0.00 | 82 | 1012.0 |
| 20260508050013 | 69 | 142 | 0.0 | 1.0 | 0.00 | 0.00 | 0.00 | 81 | 1012.0 |
| 20260508044512 | 70 | 142 | 0.0 | 1.0 | 0.00 | 0.00 | 0.00 | 81 | 1011.9 |
| 20260508043012 | 70 | 142 | 0.0 | 1.0 | 0.00 | 0.00 | 0.00 | 80 | 1011.9 |
| 20260508041518 | 71 | 142 | 0.0 | 0.0 | 0.00 | 0.00 | 0.00 | 79 | 1012.0 |
| 20260508040010 | 72 | 142 | 0.0 | 0.0 | 0.00 | 0.00 | 0.00 | 79 | 1012.0 |
| 20260508034510 | 72 | 142 | 0.0 | 0.0 | 0.00 | 0.00 | 0.00 | 78 | 1011.7 |
| 20260508033009 | 73 | 142 | 0.0 | 0.0 | 0.00 | 0.00 | 0.00 | 78 | 1011.7 |
| 20260508031509 | 73 | 142 | 0.0 | 0.0 | 0.00 | 0.00 | 0.00 | 77 | 1011.6 |
| 20260508030018 | 74 | 142 | 0.0 | 1.0 | 0.00 | 0.00 | 0.00 | 77 | 1011.5 |
| 20260508024509 | 74 | 142 | 0.0 | 0.0 | 0.00 | 0.00 | 0.00 | 76 | 1011.4 |
| 20260508023007 | 75 | 142 | 0.0 | 2.0 | 0.00 | 0.00 | 0.00 | 76 | 1011.2 |
| 20260508021511 | 75 | 142 | 0.0 | 2.0 | 0.00 | 0.00 | 0.00 | 75 | 1011.1 |